Time;durP1;ratioP1;P1;durP2;ratioP2;P2;SDS_P1;SDS_P2;PMS_P1;PMS_P2;Temp;Humidity;BMP_temperature;BMP_pressure;BME280_temperature;BME280_humidity;BME280_pressure;Samples;Min_cycle;Max_cycle;Signal;HPM_P1;HPM_P2
2022/05/07 00:01:49;;;;;;;;;;;13.40;71.80;;;12.45;67.24;96753.97;4052271;34;19904;-88
2022/05/07 00:04:17;;;;;;;;;;;13.40;71.50;;;12.46;67.28;96752.03;4073929;34;20188;-88
2022/05/07 00:06:46;;;;;;;;;;;13.40;71.60;;;12.44;67.33;96749.56;4051864;34;19924;-87
2022/05/07 00:09:17;;;;;;;;;;;13.40;71.60;;;12.46;67.19;96761.06;4052157;34;19911;-87
2022/05/07 00:11:47;;;;;;;;;;;13.40;71.50;;;12.46;67.03;96757.50;4074098;34;20104;-87
2022/05/07 00:14:15;;;;;;;;;;;13.40;71.50;;;12.45;67.13;96758.59;4073878;34;19965;-87
2022/05/07 00:19:30;;;;;;;;;;;13.40;71.50;;;12.45;67.14;96761.34;4052297;34;20141;-87
2022/05/07 00:21:59;;;;;;;;;;;13.40;71.50;;;12.44;67.33;96757.81;4074170;34;20036;-87
2022/05/07 00:24:29;;;;;;;;;;;13.40;71.50;;;12.45;67.15;96755.88;4074000;34;19940;-88
2022/05/07 00:26:57;;;;;;;;;;;13.40;71.60;;;12.45;67.21;96756.72;4051469;34;20224;-86
2022/05/07 00:29:26;;;;;;;;;;;13.40;71.50;;;12.44;67.18;96752.31;4052272;34;19912;-86
2022/05/07 00:31:55;;;;;;;;;;;13.40;71.60;;;12.43;67.28;96756.16;4052220;34;20170;-87
2022/05/07 00:34:25;;;;;;;;;;;13.40;71.50;;;12.42;67.04;96752.56;4051833;34;19924;-87
2022/05/07 00:36:54;;;;;;;;;;;13.40;72.40;;;12.44;67.33;96752.31;4073475;34;19989;-86
2022/05/07 00:39:24;;;;;;;;;;;13.40;71.60;;;12.43;66.99;96753.41;4052028;34;19951;-87
2022/05/07 00:41:54;;;;;;;;;;;13.30;71.60;;;12.43;67.36;96756.97;4051759;34;19948;-86
2022/05/07 00:44:22;;;;;;;;;;;13.40;71.60;;;12.42;67.26;96760.78;4073483;34;19911;-87
2022/05/07 00:46:51;;;;;;;;;;;13.30;71.60;;;12.41;67.13;96759.13;4073336;34;20126;-86
2022/05/07 00:49:20;;;;;;;;;;;13.30;71.70;;;12.41;67.04;96752.84;4051374;34;19904;-87
2022/05/07 00:51:47;;;;;;;;;;;13.30;71.50;;;12.42;66.91;96754.50;4051752;34;20149;-87
2022/05/07 00:54:17;;;;;;;;;;;13.30;71.50;;;12.41;67.22;96752.84;4073503;34;19905;-87
2022/05/07 00:56:46;;;;;;;;;;;13.30;71.50;;;12.41;66.91;96750.91;4121845;34;20120;-85
2022/05/07 00:59:18;;;;;;;;;;;13.30;71.50;;;12.41;67.12;96747.34;4078018;34;19911;-86
2022/05/07 01:01:46;;;;;;;;;;;13.30;71.60;;;12.40;67.28;96740.19;4099962;34;19904;-87
2022/05/07 01:04:15;;;;;;;;;;;13.30;71.50;;;12.40;66.99;96738.25;4122211;34;19957;-87
2022/05/07 01:06:43;;;;;;;;;;;13.30;71.50;;;12.40;67.00;96737.47;4079362;34;20140;-87
2022/05/07 01:09:13;;;;;;;;;;;13.30;71.50;;;12.38;67.06;96731.41;4078069;34;19926;-87
2022/05/07 01:11:42;;;;;;;;;;;13.30;71.60;;;12.37;66.89;96735.25;4078025;34;19906;-87
2022/05/07 01:14:11;;;;;;;;;;;13.30;71.40;;;12.39;67.17;96730.31;4077760;34;19904;-88
2022/05/07 01:16:41;;;;;;;;;;;13.30;71.40;;;12.37;67.08;96721.50;4077592;34;19904;-86
2022/05/07 01:19:10;;;;;;;;;;;13.30;71.40;;;12.36;67.01;96725.34;4100020;34;19904;-86
2022/05/07 01:21:40;;;;;;;;;;;13.30;71.40;;;12.37;67.09;96721.50;4078049;34;19904;-86
2022/05/07 01:24:09;;;;;;;;;;;13.30;71.30;;;12.37;67.00;96727.00;4099982;34;20468;-86
2022/05/07 01:26:41;;;;;;;;;;;13.30;71.40;;;12.37;66.80;96716.03;4077166;34;19904;-87
2022/05/07 01:29:09;;;;;;;;;;;13.30;71.30;;;12.36;67.09;96720.69;4121947;34;19904;-86
2022/05/07 01:31:42;;;;;;;;;;;13.30;71.30;;;12.36;66.85;96717.13;4115168;34;20278;-87
2022/05/07 01:34:11;;;;;;;;;;;13.30;71.30;;;12.37;66.77;96718.75;4144813;34;19908;-86
2022/05/07 01:36:45;;;;;;;;;;;13.30;71.30;;;12.36;67.15;96717.13;4099653;34;20096;-86
2022/05/07 01:39:16;;;;;;;;;;;13.30;72.20;;;12.35;67.21;96721.78;4099083;34;19912;-86
2022/05/07 01:41:45;;;;;;;;;;;13.30;71.30;;;12.35;67.04;96723.69;4121900;34;19904;-86
2022/05/07 01:44:14;;;;;;;;;;;13.30;71.30;;;12.35;66.88;96718.19;4121773;34;20032;-87
2022/05/07 01:49:34;;;;;;;;;;;13.30;71.30;;;12.34;66.92;96717.41;4099301;34;19904;-86
2022/05/07 01:52:08;;;;;;;;;;;13.30;71.30;;;12.33;66.89;96712.19;4099762;34;19938;-86
2022/05/07 01:54:41;;;;;;;;;;;13.20;72.00;;;12.34;67.12;96713.81;4121890;34;19904;-86
2022/05/07 01:57:10;;;;;;;;;;;13.20;71.20;;;12.33;66.80;96713.00;4144263;34;20041;-86
2022/05/07 01:59:38;;;;;;;;;;;13.20;71.20;;;12.33;66.80;96710.25;4121900;34;19911;-86
2022/05/07 02:02:11;;;;;;;;;;;13.20;71.20;;;12.33;66.80;96709.44;4121996;34;19919;-86
2022/05/07 02:04:44;;;;;;;;;;;13.20;71.30;;;12.31;67.01;96709.69;4099548;34;19904;-86
2022/05/07 02:07:15;;;;;;;;;;;13.20;71.20;;;12.33;66.85;96712.19;4099198;34;19976;-86
2022/05/07 02:09:43;;;;;;;;;;;13.20;71.30;;;12.32;66.82;96705.84;4121609;34;20087;-86
2022/05/07 02:12:14;;;;;;;;;;;13.20;71.20;;;12.32;66.73;96711.34;4108210;34;20036;-86
2022/05/07 02:14:47;;;;;;;;;;;13.20;71.20;;;12.31;66.88;96709.69;4076436;34;20109;-86
2022/05/07 02:17:17;;;;;;;;;;;13.20;71.10;;;12.31;66.84;96719.84;4098361;34;20264;-86
2022/05/07 02:19:48;;;;;;;;;;;13.20;71.10;;;12.30;66.65;96719.00;4121828;34;19952;-86
2022/05/07 02:22:19;;;;;;;;;;;13.20;71.10;;;12.30;66.86;96713.53;4121903;34;20243;-87
2022/05/07 02:24:50;;;;;;;;;;;13.20;71.00;;;12.30;66.80;96709.97;4099186;34;20052;-86
2022/05/07 02:27:24;;;;;;;;;;;13.20;71.00;;;12.27;67.02;96712.16;4098702;34;19983;-86
2022/05/07 02:29:57;;;;;;;;;;;13.20;71.20;;;12.29;66.77;96711.88;4098876;34;19904;-86
2022/05/07 02:32:27;;;;;;;;;;;13.20;71.10;;;12.28;66.44;96702.81;4099420;34;19911;-86
2022/05/07 02:34:55;;;;;;;;;;;13.20;71.10;;;12.26;66.91;96713.25;4099373;34;20112;-86
2022/05/07 02:37:38;;;;;;;;;;;13.20;71.00;;;12.27;66.92;96708.56;4077134;34;20337;-86
2022/05/07 02:40:08;;;;;;;;;;;13.20;71.00;;;12.27;66.80;96709.41;4099377;34;19911;-85
2022/05/07 02:42:37;;;;;;;;;;;13.20;71.00;;;12.26;66.72;96721.47;4077271;34;19904;-86
2022/05/07 02:45:24;;;;;;;;;;;13.20;71.00;;;12.27;66.83;96722.28;4077343;34;20124;-87
2022/05/07 02:47:56;;;;;;;;;;;13.20;71.10;;;12.26;66.55;96720.66;4076847;34;19910;-86
2022/05/07 02:50:25;;;;;;;;;;;13.20;71.10;;;12.25;66.88;96717.09;4078344;34;20001;-87
2022/05/07 02:52:56;;;;;;;;;;;13.20;71.10;;;12.26;66.75;96717.91;4093124;34;20135;-86
2022/05/07 02:55:25;;;;;;;;;;;13.20;71.00;;;12.25;66.96;96719.81;4101418;34;19910;-87
2022/05/07 02:57:56;;;;;;;;;;;13.20;71.00;;;12.24;66.46;96726.41;4100972;34;19995;-86
2022/05/07 03:00:26;;;;;;;;;;;13.20;71.00;;;12.24;66.71;96728.34;4124021;34;19904;-86
2022/05/07 03:02:55;;;;;;;;;;;13.20;71.10;;;12.24;66.93;96731.09;4123759;34;19911;-87
2022/05/07 03:05:29;;;;;;;;;;;13.20;71.10;;;12.23;67.03;96730.25;4101649;34;19904;-86
2022/05/07 03:08:00;;;;;;;;;;;13.20;71.10;;;12.23;66.78;96741.22;4146212;34;19982;-87
2022/05/07 03:10:30;;;;;;;;;;;13.20;71.00;;;12.24;66.70;96737.38;4101691;34;19904;-86
2022/05/07 03:12:59;;;;;;;;;;;13.20;71.20;;;12.24;67.01;96737.38;4101792;34;19904;-86
2022/05/07 03:15:28;;;;;;;;;;;13.20;71.10;;;12.23;66.77;96740.41;4123863;34;19904;-86
2022/05/07 03:17:56;;;;;;;;;;;13.20;71.00;;;12.23;66.66;96740.41;4123477;34;19904;-86
2022/05/07 03:20:25;;;;;;;;;;;13.10;71.00;;;12.22;66.49;96731.34;4101832;34;19904;-86
2022/05/07 03:22:53;;;;;;;;;;;13.10;71.00;;;12.23;66.71;96732.19;4101569;34;20171;-86
2022/05/07 03:25:24;;;;;;;;;;;13.10;71.00;;;12.22;66.47;96742.31;4123875;34;20219;-86
2022/05/07 03:27:53;;;;;;;;;;;13.10;70.90;;;12.23;66.77;96734.91;4145961;34;20118;-86
2022/05/07 03:30:23;;;;;;;;;;;13.20;70.90;;;12.19;66.45;96734.63;4101282;34;20186;-86
2022/05/07 03:33:05;;;;;;;;;;;13.20;70.90;;;12.22;66.73;96736.81;4123874;34;19912;-86
2022/05/07 03:35:35;;;;;;;;;;;13.20;70.90;;;12.23;66.35;96735.72;4123794;34;19988;-86
2022/05/07 03:38:04;;;;;;;;;;;13.10;70.90;;;12.22;66.35;96742.31;4101071;34;19904;-86
2022/05/07 03:40:45;;;;;;;;;;;13.10;70.90;;;12.22;66.42;96739.56;4146289;34;19919;-85
2022/05/07 03:43:18;;;;;;;;;;;13.20;70.80;;;12.23;66.73;96740.41;4101486;34;19904;-86
2022/05/07 03:45:50;;;;;;;;;;;13.10;70.80;;;12.23;66.27;96743.16;4123701;34;19904;-87
2022/05/07 03:48:29;;;;;;;;;;;13.20;70.70;;;12.21;66.37;96737.09;4124240;34;20137;-86
2022/05/07 03:51:01;;;;;;;;;;;13.20;70.70;;;12.23;66.26;96735.72;4101081;34;19935;-87
2022/05/07 03:53:38;;;;;;;;;;;13.20;70.70;;;12.23;66.19;96735.72;4101158;34;20131;-86
2022/05/07 03:56:25;;;;;;;;;;;13.20;70.60;;;12.25;66.19;96743.72;4123260;34;19904;-86
2022/05/07 03:59:00;;;;;;;;;;;13.20;70.60;;;12.25;66.19;96743.72;4101518;34;20045;-85
2022/05/07 04:01:43;;;;;;;;;;;13.20;70.40;;;12.25;66.21;96750.03;4122788;34;20069;-86
2022/05/07 04:04:15;;;;;;;;;;;13.20;70.50;;;12.26;66.31;96751.69;4101125;34;19934;-86
2022/05/07 04:06:46;;;;;;;;;;;13.20;70.40;;;12.27;66.13;96750.59;4100738;34;19951;-86
2022/05/07 04:09:22;;;;;;;;;;;13.20;70.40;;;12.28;66.30;96754.13;4123467;34;20194;-86
2022/05/07 04:12:06;;;;;;;;;;;13.20;70.30;;;12.28;66.05;96754.97;4123259;34;20132;-87
2022/05/07 04:14:40;;;;;;;;;;;13.20;70.20;;;12.28;66.27;96749.50;4100503;34;19975;-87
2022/05/07 04:17:14;;;;;;;;;;;13.20;70.20;;;12.31;65.87;96750.88;4145668;34;19911;-87
2022/05/07 04:19:55;;;;;;;;;;;13.20;70.00;;;12.32;66.01;96757.19;4123504;34;19904;-86
2022/05/07 04:22:25;;;;;;;;;;;13.20;70.00;;;12.33;66.02;96754.19;4123321;34;19904;-86
2022/05/07 04:25:01;;;;;;;;;;;13.30;70.10;;;12.35;65.85;96753.91;4123066;34;19986;-87
2022/05/07 04:27:32;;;;;;;;;;;13.30;70.00;;;12.34;65.88;96752.25;4100483;34;19927;-87
2022/05/07 04:30:06;;;;;;;;;;;13.30;70.10;;;12.36;65.83;96752.81;4100729;34;19904;-87
2022/05/07 04:32:38;;;;;;;;;;;13.30;69.90;;;12.37;66.01;96754.47;4078853;34;19904;-87
2022/05/07 04:35:11;;;;;;;;;;;13.30;69.90;;;12.37;65.80;96751.72;4100773;34;20102;-86
2022/05/07 04:37:41;;;;;;;;;;;13.30;70.10;;;12.37;66.01;96746.22;4099989;34;19904;-86
2022/05/07 04:40:23;;;;;;;;;;;13.30;70.10;;;12.37;66.02;96751.72;4100529;34;20109;-86
2022/05/07 04:42:54;;;;;;;;;;;13.30;70.20;;;12.38;66.03;96758.84;4122825;34;19904;-85
2022/05/07 04:45:27;;;;;;;;;;;13.30;70.20;;;12.37;66.00;96749.81;4100191;34;20126;-88
2022/05/07 04:48:06;;;;;;;;;;;13.30;70.10;;;12.35;66.17;96748.41;4077715;34;19904;-86
2022/05/07 04:50:43;;;;;;;;;;;13.30;70.40;;;12.38;66.00;96745.97;4095875;34;20148;-86
2022/05/07 04:53:53;;;;;;;;;;;13.30;70.30;;;12.38;66.13;96739.63;4039487;34;20163;-86
2022/05/07 04:56:27;;;;;;;;;;;13.30;70.40;;;12.37;66.15;96749.81;4094643;34;19904;-86
2022/05/07 04:59:19;;;;;;;;;;;13.30;70.60;;;12.39;66.39;96749.53;4105967;34;19945;-86
2022/05/07 05:01:58;;;;;;;;;;;13.30;70.70;;;12.39;66.38;96744.03;4100598;34;19904;-86
2022/05/07 05:04:29;;;;;;;;;;;13.30;70.80;;;12.39;66.77;96744.84;4115670;34;20095;-86
2022/05/07 05:07:02;;;;;;;;;;;13.30;70.90;;;12.41;66.45;96752.84;4122308;34;20130;-86
2022/05/07 05:09:43;;;;;;;;;;;13.30;71.00;;;12.40;66.82;96745.69;4100359;34;19908;-86
2022/05/07 05:12:24;;;;;;;;;;;13.30;71.00;;;12.40;67.30;96746.50;4100211;34;19904;-86
2022/05/07 05:15:04;;;;;;;;;;;13.30;71.50;;;12.41;67.14;96752.84;4122529;34;19927;-86
2022/05/07 05:18:13;;;;;;;;;;;13.30;71.50;;;12.42;67.46;96755.31;4072880;34;19938;-87
2022/05/07 05:20:45;;;;;;;;;;;13.40;71.80;;;12.42;67.46;96758.03;4096473;34;19989;-86
2022/05/07 05:23:29;;;;;;;;;;;13.40;71.90;;;12.43;67.60;96767.13;4099756;34;20144;-87
2022/05/07 05:26:03;;;;;;;;;;;13.40;72.00;;;12.43;67.87;96767.13;4079927;34;19911;-85
2022/05/07 05:28:47;;;;;;;;;;;13.40;72.10;;;12.43;68.04;96764.38;4078018;34;20069;-86
2022/05/07 05:31:23;;;;;;;;;;;13.40;72.10;;;12.45;68.24;96764.09;4122540;34;20104;-86
2022/05/07 05:34:00;;;;;;;;;;;13.40;72.30;;;12.50;67.95;96775.94;4100248;34;19904;-87
2022/05/07 05:37:01;;;;;;;;;;;13.40;72.20;;;12.53;67.85;96767.16;4119111;34;19972;-86
2022/05/07 05:39:41;;;;;;;;;;;13.40;72.40;;;12.54;68.27;96765.22;4100149;34;20039;-87
2022/05/07 05:42:19;;;;;;;;;;;13.50;72.60;;;12.56;68.12;96766.63;4122479;34;19926;-86
2022/05/07 05:44:51;;;;;;;;;;;13.50;72.50;;;12.58;68.36;96769.09;4122395;34;19940;-86
2022/05/07 05:47:34;;;;;;;;;;;13.50;72.50;;;12.59;67.94;96771.56;4144436;34;19911;-85
2022/05/07 05:50:06;;;;;;;;;;;13.50;72.40;;;12.57;68.11;96768.28;4100244;34;20242;-86
2022/05/07 05:52:47;;;;;;;;;;;13.50;72.40;;;12.61;68.07;96762.22;4100151;34;19919;-87
2022/05/07 05:55:20;;;;;;;;;;;13.50;72.50;;;12.59;68.16;96771.56;4100171;34;19904;-87
2022/05/07 05:57:52;;;;;;;;;;;13.50;72.50;;;12.61;68.10;96773.22;4144541;34;19904;-87
2022/05/07 06:00:26;;;;;;;;;;;13.50;72.50;;;12.61;67.84;96768.56;4137391;34;20075;-88
2022/05/07 06:02:57;;;;;;;;;;;13.50;72.40;;;12.61;67.87;96774.06;4078119;34;20290;-87
2022/05/07 06:05:40;;;;;;;;;;;13.50;72.50;;;12.62;68.19;96769.38;4085005;34;19927;-87
2022/05/07 06:08:12;;;;;;;;;;;13.50;72.50;;;12.65;68.15;96771.59;4099180;34;19911;-86
2022/05/07 06:10:45;;;;;;;;;;;13.50;72.40;;;12.65;67.78;96768.84;4091101;34;19911;-86
2022/05/07 06:13:20;;;;;;;;;;;13.60;72.40;;;12.64;67.95;96773.53;4099871;34;20481;-86
2022/05/07 06:15:57;;;;;;;;;;;13.60;72.30;;;12.68;68.01;96774.63;4131938;34;19904;-86
2022/05/07 06:18:29;;;;;;;;;;;13.60;72.10;;;12.69;67.79;96781.75;4122499;34;20038;-87
2022/05/07 06:21:08;;;;;;;;;;;13.60;72.10;;;12.70;67.75;96779.84;4099934;34;20174;-86
2022/05/07 06:23:44;;;;;;;;;;;13.60;72.10;;;12.72;67.59;96783.13;4099868;34;19926;-87
2022/05/07 06:29:23;;;;;;;;;;;13.70;72.20;;;12.74;67.44;96779.03;4103298;34;19911;-87
2022/05/07 06:32:03;;;;;;;;;;;13.70;72.10;;;12.78;67.68;96782.06;4124486;34;19975;-87
2022/05/07 06:34:36;;;;;;;;;;;13.70;72.00;;;12.79;67.86;96780.97;4146617;34;20059;-88
2022/05/07 06:37:05;;;;;;;;;;;13.70;72.00;;;12.81;67.38;96784.28;4124460;34;20069;-85
2022/05/07 06:39:37;;;;;;;;;;;13.70;72.80;;;12.84;67.43;96785.66;4102195;34;19903;-86
2022/05/07 06:42:07;;;;;;;;;;;13.70;71.90;;;12.87;67.35;96794.16;4124503;34;20157;-86
2022/05/07 06:44:35;;;;;;;;;;;13.80;71.80;;;12.90;67.45;96787.34;4101912;34;19911;-86
2022/05/07 06:47:07;;;;;;;;;;;13.80;71.80;;;12.92;67.29;96785.13;4124133;34;20031;-86
2022/05/07 06:49:37;;;;;;;;;;;13.80;71.60;;;12.95;67.00;96787.31;4101976;34;19904;-85
2022/05/07 06:52:06;;;;;;;;;;;13.90;71.60;;;12.96;67.24;96786.22;4102136;34;19904;-86
2022/05/07 06:54:35;;;;;;;;;;;13.90;71.50;;;12.98;67.12;96789.53;4146799;34;20242;-86
2022/05/07 06:57:05;;;;;;;;;;;13.90;71.40;;;12.98;67.20;96784.03;4101758;34;19934;-86
2022/05/07 06:59:33;;;;;;;;;;;13.90;71.40;;;13.01;67.07;96785.41;4101864;34;19904;-87
2022/05/07 07:02:02;;;;;;;;;;;13.90;71.30;;;13.01;67.08;96785.41;4088208;34;19904;-86
2022/05/07 07:04:30;;;;;;;;;;;13.90;71.20;;;13.04;67.06;96791.19;4125110;34;20018;-86
2022/05/07 07:07:01;;;;;;;;;;;13.90;71.30;;;13.04;67.06;96793.13;4101585;34;20073;-87
2022/05/07 07:09:29;;;;;;;;;;;13.90;71.20;;;13.06;67.05;96793.69;4079843;34;19912;-87
2022/05/07 07:11:58;;;;;;;;;;;14.00;71.10;;;13.09;66.86;96786.81;4101825;34;19988;-86
2022/05/07 07:14:26;;;;;;;;;;;14.00;71.10;;;13.12;66.53;96780.75;4101994;34;19904;-88
2022/05/07 07:16:55;;;;;;;;;;;14.00;71.00;;;13.16;66.49;96779.94;4079459;34;19904;-86
2022/05/07 07:19:24;;;;;;;;;;;14.00;70.90;;;13.21;66.63;96781.88;4101705;34;19911;-88
2022/05/07 07:21:53;;;;;;;;;;;14.10;70.90;;;13.29;66.36;96784.09;4079665;34;20227;-87
2022/05/07 07:24:23;;;;;;;;;;;14.10;70.80;;;13.33;66.31;96781.63;4101635;34;20094;-87
2022/05/07 07:26:54;;;;;;;;;;;14.20;70.60;;;13.35;66.35;96782.97;4079400;34;19911;-87
2022/05/07 07:29:23;;;;;;;;;;;14.20;70.50;;;13.34;65.70;96786.84;4101707;34;19927;-88
2022/05/07 07:32:10;;;;;;;;;;;14.20;70.40;;;13.34;66.30;96786.84;4101739;34;20116;-87
2022/05/07 07:34:43;;;;;;;;;;;14.20;70.40;;;13.34;66.21;96786.03;4079608;34;19919;-87
2022/05/07 07:37:11;;;;;;;;;;;14.20;70.40;;;13.31;66.02;96784.63;4079151;34;20260;-87
2022/05/07 07:39:41;;;;;;;;;;;14.20;70.40;;;13.31;66.35;96792.06;4101587;34;19904;-89
2022/05/07 07:42:10;;;;;;;;;;;14.20;70.50;;;13.27;66.47;96790.94;4101603;34;20139;-87
2022/05/07 07:47:56;;;;;;;;;;;14.20;70.60;;;13.26;66.50;96786.53;4101521;34;19926;-88
2022/05/07 07:47:59;;;;;;;;;;;14.20;70.60;;;13.30;66.63;96793.16;4079251;34;20335;-87
2022/05/07 07:50:30;;;;;;;;;;;14.20;70.70;;;13.31;66.26;96781.06;4123910;34;19904;-88
2022/05/07 07:53:00;;;;;;;;;;;14.20;70.60;;;13.33;66.25;96784.38;4123446;34;19928;-87
2022/05/07 07:55:30;;;;;;;;;;;14.20;70.60;;;13.33;66.25;96781.63;4101041;34;20014;-86
2022/05/07 07:58:01;;;;;;;;;;;14.20;70.60;;;13.37;66.25;96790.94;4101161;34;20043;-87
2022/05/07 08:00:30;;;;;;;;;;;14.20;70.40;;;13.37;66.34;96790.13;4123606;34;19904;-88
2022/05/07 08:02:59;;;;;;;;;;;14.30;70.60;;;13.38;66.40;96787.09;4079124;34;19912;-89
2022/05/07 08:05:29;;;;;;;;;;;14.30;70.60;;;13.39;66.37;96788.75;4079184;34;19904;-87
2022/05/07 08:13:36;;;;;;;;;;;14.30;71.30;;;13.46;65.99;96778.34;4078955;34;20008;-87
2022/05/07 08:16:12;;;;;;;;;;;14.30;70.40;;;13.49;66.11;96772.28;4100843;34;19904;-87
2022/05/07 08:18:41;;;;;;;;;;;14.30;70.30;;;13.50;66.16;96773.94;4101109;34;20051;-87
2022/05/07 08:24:39;;;;;;;;;;;14.40;70.30;;;13.54;66.04;96767.88;4100455;34;20053;-87
2022/05/07 08:27:17;;;;;;;;;;;14.40;70.20;;;13.51;65.94;96766.53;4076961;34;20131;-87
2022/05/07 08:29:46;;;;;;;;;;;14.40;70.10;;;13.52;65.84;96770.94;4100625;34;19904;-88
2022/05/07 08:32:14;;;;;;;;;;;14.40;70.20;;;13.48;66.03;96765.16;4122569;34;19912;-87
2022/05/07 08:34:45;;;;;;;;;;;14.40;70.20;;;13.49;66.12;96772.28;4100425;34;19973;-88
2022/05/07 08:37:14;;;;;;;;;;;14.40;70.30;;;13.47;66.12;96769.00;4122690;34;19904;-87
2022/05/07 08:39:43;;;;;;;;;;;14.40;70.30;;;13.44;66.15;96768.69;4145322;34;19904;-87
2022/05/07 08:42:13;;;;;;;;;;;14.40;70.30;;;13.43;66.36;96775.31;4100120;34;19904;-88
2022/05/07 08:44:43;;;;;;;;;;;14.30;70.50;;;13.40;66.45;96773.94;4100270;34;20210;-87
2022/05/07 08:47:13;;;;;;;;;;;14.30;70.60;;;13.37;66.54;96774.44;4099705;34;19904;-88
2022/05/07 08:49:42;;;;;;;;;;;14.30;70.60;;;13.37;66.50;96774.44;4122834;34;20023;-89
2022/05/07 08:52:20;;;;;;;;;;;14.30;70.70;;;13.36;66.46;96778.28;4122608;34;19927;-86
2022/05/07 08:54:49;;;;;;;;;;;14.30;70.70;;;13.32;66.47;96766.22;4051795;34;19912;-86
2022/05/07 08:57:46;;;;;;;;;;;14.30;70.80;;;13.32;66.67;96766.22;4051902;34;19911;-87
2022/05/07 09:01:00;;;;;;;;;;;14.30;70.90;;;13.34;66.72;96775.03;4051922;34;19904;-88
2022/05/07 09:04:32;;;;;;;;;;;14.30;71.00;;;13.37;66.61;96777.19;4115589;34;19945;-89
2022/05/07 09:07:03;;;;;;;;;;;14.30;70.90;;;13.38;66.54;96765.09;4099706;34;19911;-87
2022/05/07 09:10:11;;;;;;;;;;;14.30;70.90;;;13.36;66.73;96767.28;4099924;34;19911;-87
2022/05/07 09:12:41;;;;;;;;;;;14.30;70.90;;;13.38;66.70;96767.84;4119173;34;19904;-86
2022/05/07 09:15:11;;;;;;;;;;;14.30;70.80;;;13.39;66.66;96768.69;4099791;34;19927;-87
2022/05/07 09:17:40;;;;;;;;;;;14.30;70.80;;;13.38;66.65;96769.78;4122198;34;20023;-88
2022/05/07 09:20:13;;;;;;;;;;;14.30;71.70;;;13.39;66.65;96766.75;4099737;34;20171;-86
2022/05/07 09:22:54;;;;;;;;;;;14.30;70.90;;;13.39;66.67;96755.75;4122091;34;19904;-87
2022/05/07 09:25:24;;;;;;;;;;;14.30;70.90;;;13.41;66.73;96759.09;4099757;34;19912;-87
2022/05/07 09:27:56;;;;;;;;;;;14.30;70.90;;;13.41;66.70;96752.78;4121950;34;19911;-87
2022/05/07 09:30:26;;;;;;;;;;;14.30;70.90;;;13.40;66.66;96746.44;4122080;34;20185;-87
2022/05/07 09:32:56;;;;;;;;;;;14.30;70.80;;;13.40;66.77;96748.38;4122031;34;19911;-87
2022/05/07 09:38:12;;;;;;;;;;;14.30;70.80;;;13.39;66.69;96743.94;4099473;34;19911;-89
2022/05/07 09:40:42;;;;;;;;;;;14.30;70.80;;;13.38;66.82;96748.59;4099534;34;20093;-88
2022/05/07 09:43:38;;;;;;;;;;;14.30;70.90;;;13.38;66.80;96739.53;4099580;34;20056;-87
2022/05/07 09:46:08;;;;;;;;;;;14.30;71.00;;;13.38;66.86;96736.78;4121796;34;19985;-88
2022/05/07 09:48:38;;;;;;;;;;;14.30;71.00;;;13.37;66.72;96743.38;4121577;34;19904;-87
2022/05/07 09:51:06;;;;;;;;;;;14.30;71.00;;;13.36;66.75;96737.03;4099384;34;19904;-88
2022/05/07 09:59:16;;;;;;;;;;;14.30;71.10;;;13.37;66.97;96724.13;4121944;34;19904;-88
2022/05/07 10:02:00;;;;;;;;;;;14.30;71.10;;;13.35;67.14;96727.19;4101894;34;19911;-87
2022/05/07 10:04:49;;;;;;;;;;;14.30;71.20;;;13.34;66.86;96715.34;4101983;34;20194;-87
2022/05/07 10:07:55;;;;;;;;;;;14.30;71.20;;;13.36;66.89;96723.28;4123774;34;19906;-87
2022/05/07 10:10:27;;;;;;;;;;;14.30;71.20;;;13.36;66.92;96726.03;4101964;34;19911;-89
2022/05/07 10:12:57;;;;;;;;;;;14.30;71.20;;;13.33;66.96;96718.38;4124097;34;20134;-88
2022/05/07 10:15:27;;;;;;;;;;;14.30;71.30;;;13.33;67.07;96715.63;4101631;34;19995;-88
2022/05/07 10:18:02;;;;;;;;;;;14.30;71.30;;;13.36;67.47;96720.53;4124025;34;20110;-87
2022/05/07 10:20:41;;;;;;;;;;;14.30;71.30;;;13.32;67.03;96712.03;4146811;34;20103;-88
2022/05/07 10:23:10;;;;;;;;;;;14.30;71.30;;;13.34;67.15;96714.53;4123965;34;20109;-88
2022/05/07 10:25:39;;;;;;;;;;;14.30;71.30;;;13.32;67.19;96708.47;4101582;34;20137;-86
2022/05/07 10:28:12;;;;;;;;;;;14.30;71.30;;;13.32;66.95;96713.97;4123644;34;19904;-88
2022/05/07 10:30:49;;;;;;;;;;;14.20;71.30;;;13.32;66.94;96706.53;4101594;34;20061;-89
2022/05/07 10:33:18;;;;;;;;;;;14.30;71.40;;;13.33;66.96;96707.38;4101555;34;19957;-88
2022/05/07 10:35:49;;;;;;;;;;;14.20;71.30;;;13.32;67.25;96700.22;4101371;34;19941;-87
2022/05/07 10:38:26;;;;;;;;;;;14.20;71.40;;;13.31;67.14;96698.56;4101381;34;19975;-87
2022/05/07 10:40:57;;;;;;;;;;;14.30;71.50;;;13.29;67.26;96696.09;4101642;34;19904;-87
2022/05/07 10:43:30;;;;;;;;;;;14.20;71.40;;;13.29;67.18;96692.53;4101567;34;20183;-88
2022/05/07 10:46:03;;;;;;;;;;;14.30;71.50;;;13.33;67.22;96701.88;4101362;34;20310;-88
2022/05/07 10:48:43;;;;;;;;;;;14.20;71.40;;;13.33;67.38;96696.38;4101324;34;20027;-88
2022/05/07 10:51:18;;;;;;;;;;;14.20;71.40;;;13.34;67.19;96701.59;4101293;34;20220;-88
2022/05/07 10:53:47;;;;;;;;;;;14.30;71.40;;;13.35;67.06;96694.19;4101242;34;19908;-88
2022/05/07 10:56:17;;;;;;;;;;;14.30;71.40;;;13.36;67.05;96687.53;4101356;34;20088;-87
2022/05/07 10:58:47;;;;;;;;;;;14.30;71.40;;;13.35;67.17;96686.75;4123428;34;19903;-88
2022/05/07 11:01:17;;;;;;;;;;;14.30;71.40;;;13.37;67.21;96691.94;4101500;34;20068;-87
2022/05/07 11:03:46;;;;;;;;;;;14.30;71.40;;;13.36;67.24;96690.28;4101292;34;20360;-88
2022/05/07 11:06:14;;;;;;;;;;;14.30;71.40;;;13.38;66.84;96679.03;4085030;34;19912;-87
2022/05/07 11:08:53;;;;;;;;;;;14.30;71.30;;;13.38;67.08;96679.03;4101315;34;20179;-88
2022/05/07 11:11:23;;;;;;;;;;;14.30;71.40;;;13.37;67.10;96680.94;4100980;34;19936;-89
2022/05/07 11:13:53;;;;;;;;;;;14.30;71.30;;;13.36;67.23;96673.81;4079010;34;19904;-88
2022/05/07 11:16:24;;;;;;;;;;;14.30;71.30;;;13.38;66.92;96677.09;4100860;34;20127;-87
2022/05/07 11:18:54;;;;;;;;;;;14.30;71.30;;;13.39;67.10;96664.19;4079186;34;19904;-87
2022/05/07 11:21:24;;;;;;;;;;;14.30;71.20;;;13.39;67.03;96656.75;4101058;34;20075;-88
2022/05/07 11:23:54;;;;;;;;;;;14.30;71.20;;;13.39;67.04;96654.00;4079414;34;19952;-88
2022/05/07 11:26:23;;;;;;;;;;;14.30;71.20;;;13.41;67.08;96653.78;4101049;34;20220;-88
2022/05/07 11:29:01;;;;;;;;;;;14.30;71.10;;;13.42;66.92;96655.44;4100961;34;19982;-88
2022/05/07 11:31:32;;;;;;;;;;;14.40;71.20;;;13.39;67.00;96645.75;4101124;34;20049;-88
2022/05/07 11:34:10;;;;;;;;;;;14.40;71.10;;;13.42;67.18;96645.22;4101441;34;20127;-88
2022/05/07 11:36:39;;;;;;;;;;;14.40;72.00;;;13.42;66.97;96647.97;4100736;34;19981;-88
2022/05/07 11:39:09;;;;;;;;;;;14.40;71.10;;;13.42;66.99;96639.72;4078976;34;20170;-88
2022/05/07 11:41:37;;;;;;;;;;;14.40;71.10;;;13.41;66.92;96637.28;4079007;34;19904;-87
2022/05/07 11:47:22;;;;;;;;;;;14.40;71.10;;;13.42;66.84;96631.47;4039731;34;20311;-89
2022/05/07 11:50:05;;;;;;;;;;;14.40;71.10;;;13.43;66.94;96635.03;4078712;34;20132;-88
2022/05/07 11:52:33;;;;;;;;;;;14.30;71.10;;;13.40;66.98;96625.44;4124007;34;20142;-89
2022/05/07 11:55:08;;;;;;;;;;;14.40;71.10;;;13.40;66.98;96625.44;4122793;34;19904;-88
2022/05/07 11:57:44;;;;;;;;;;;14.40;71.10;;;13.40;66.99;96608.13;4122857;34;20115;-88
2022/05/07 12:00:44;;;;;;;;;;;14.40;71.10;;;13.39;67.07;96609.19;4100753;34;20231;-88
2022/05/07 12:03:19;;;;;;;;;;;14.40;71.20;;;13.39;67.05;96604.50;4093837;34;19912;-89
2022/05/07 12:05:48;;;;;;;;;;;14.40;71.20;;;13.41;67.06;96601.53;4122864;34;19982;-89
2022/05/07 12:08:40;;;;;;;;;;;14.30;71.30;;;13.41;67.10;96599.59;4123007;34;19912;-87
2022/05/07 12:11:08;;;;;;;;;;;14.40;71.20;;;13.41;67.22;96594.09;4119966;34;20379;-88
2022/05/07 12:13:37;;;;;;;;;;;14.40;71.20;;;13.40;67.12;96588.88;4100517;34;20016;-88
2022/05/07 12:18:58;;;;;;;;;;;14.40;71.20;;;13.41;67.13;96588.59;4078545;34;20325;-89